createdAt,value
2019-02-24T00:02:27.241Z,99375.56
2019-02-24T00:05:02.037Z,99380.19
2019-02-24T00:07:37.006Z,99372.05
2019-02-24T00:10:11.386Z,99373.71
2019-02-24T00:12:45.663Z,99378.39
2019-02-24T00:15:19.684Z,99379.97
2019-02-24T00:18:00.255Z,99378.34
2019-02-24T00:20:34.439Z,99382.58
2019-02-24T00:23:10.186Z,99379.27
2019-02-24T00:25:44.653Z,99378.66
2019-02-24T00:28:18.201Z,99388.80
2019-02-24T00:30:52.051Z,99385.45
2019-02-24T00:33:26.294Z,99385.53
2019-02-24T00:36:00.594Z,99389.58
2019-02-24T00:38:37.455Z,99385.09
2019-02-24T00:41:11.536Z,99386.70
2019-02-24T00:43:46.721Z,99386.56
2019-02-24T00:46:20.808Z,99387.25
2019-02-24T00:48:54.763Z,99395.52
2019-02-24T00:51:28.566Z,99392.89
2019-02-24T00:54:02.509Z,99394.89
2019-02-24T00:56:36.175Z,99395.67
2019-02-24T00:59:10.824Z,99394.55
2019-02-24T01:01:45.240Z,99395.75
2019-02-24T01:04:19.045Z,99394.09
2019-02-24T01:06:54.604Z,99395.27
2019-02-24T01:09:28.467Z,99394.14
2019-02-24T01:12:02.259Z,99394.85
2019-02-24T01:14:55.325Z,99398.72
2019-02-24T01:17:28.843Z,99402.17
2019-02-24T01:20:02.489Z,99395.88
2019-02-24T01:22:37.533Z,99397.13
2019-02-24T01:25:11.785Z,99394.13
2019-02-24T01:27:46.937Z,99391.13
2019-02-24T01:30:20.598Z,99386.53
2019-02-24T01:32:56.230Z,99386.16
2019-02-24T01:35:29.894Z,99384.17
2019-02-24T01:38:03.952Z,99385.42
2019-02-24T01:40:38.282Z,99387.35
2019-02-24T01:43:12.642Z,99386.53
2019-02-24T01:45:46.460Z,99383.45
2019-02-24T01:48:21.163Z,99383.38
2019-02-24T01:50:55.153Z,99381.27
2019-02-24T01:53:29.331Z,99379.15
2019-02-24T01:56:03.502Z,99389.06
2019-02-24T01:58:37.657Z,99378.10
2019-02-24T02:01:13.311Z,99378.31
2019-02-24T02:03:47.253Z,99381.45
2019-02-24T02:06:20.825Z,99387.22
2019-02-24T02:08:55.499Z,99378.21
2019-02-24T02:11:31.705Z,99380.19
2019-02-24T02:14:07.667Z,99375.13
2019-02-24T02:16:43.184Z,99379.86
2019-02-24T02:19:17.007Z,99371.38
2019-02-24T02:21:51.335Z,99377.95
2019-02-24T02:24:25.086Z,99373.06
2019-02-24T02:26:59.811Z,99374.63
2019-02-24T02:29:33.589Z,99377.34
2019-02-24T02:32:07.454Z,99371.93
2019-02-24T02:34:42.454Z,99373.89
2019-02-24T02:37:16.136Z,99372.57
2019-02-24T02:39:50.301Z,99363.34
2019-02-24T02:42:24.531Z,99367.84
2019-02-24T02:45:18.187Z,99365.06
2019-02-24T02:47:52.035Z,99372.71
2019-02-24T02:50:27.161Z,99373.09
2019-02-24T02:53:01.305Z,99371.80
2019-02-24T03:08:38.143Z,99361.34
2019-02-24T03:17:15.295Z,99362.11
2019-02-24T03:20:27.380Z,99360.00
2019-02-24T03:22:57.991Z,99355.08
2019-02-24T03:25:52.305Z,99354.19
2019-02-24T03:31:09.727Z,99349.75
2019-02-24T03:33:44.904Z,99349.48
2019-02-24T03:36:17.873Z,99347.30
2019-02-24T03:38:51.857Z,99344.35
2019-02-24T03:41:25.556Z,99342.72
2019-02-24T03:44:00.363Z,99323.97
2019-02-24T03:46:38.452Z,99333.23
2019-02-24T03:49:14.380Z,99319.11
2019-02-24T03:51:48.375Z,99328.34
2019-02-24T03:54:22.108Z,99324.79
2019-02-24T03:56:57.674Z,99321.94
2019-02-24T03:59:31.666Z,99321.14
2019-02-24T04:02:05.945Z,99310.02
2019-02-24T04:04:40.507Z,99307.46
2019-02-24T04:07:17.408Z,99299.09
2019-02-24T04:09:54.304Z,99301.56
2019-02-24T04:12:31.533Z,99299.68
2019-02-24T04:15:08.702Z,99308.17
2019-02-24T04:17:43.827Z,99298.86
2019-02-24T04:20:20.443Z,99293.42
2019-02-24T04:22:57.487Z,99291.00
2019-02-24T04:25:32.410Z,99291.42
2019-02-24T04:28:10.348Z,99290.10
2019-02-24T04:30:45.586Z,99292.83
2019-02-24T04:33:20.516Z,99287.31
2019-02-24T04:35:55.972Z,99281.84
2019-02-24T04:38:30.654Z,99276.72
2019-02-24T04:41:06.812Z,99269.41
2019-02-24T04:43:45.241Z,99267.55
2019-02-24T04:46:21.082Z,99269.19
2019-02-24T04:48:55.773Z,99263.77
2019-02-24T04:51:30.635Z,99273.55
2019-02-24T04:54:04.858Z,99269.77
2019-02-24T04:56:39.708Z,99271.38
2019-02-24T04:59:14.314Z,99254.78
2019-02-24T05:01:48.728Z,99255.58
2019-02-24T05:04:23.968Z,99246.89
2019-02-24T05:06:58.999Z,99249.33
2019-02-24T05:09:33.018Z,99245.81
2019-02-24T05:12:10.774Z,99246.63
2019-02-24T05:14:50.100Z,99247.42
2019-02-24T05:17:26.385Z,99248.11
2019-02-24T05:20:07.001Z,99253.13
2019-02-24T05:22:42.601Z,99241.38
2019-02-24T05:25:19.590Z,99235.42
2019-02-24T05:27:54.294Z,99237.58
2019-02-24T05:30:29.100Z,99244.72
2019-02-24T05:33:06.696Z,99237.92
2019-02-24T05:35:41.353Z,99240.63
2019-02-24T05:38:17.017Z,99242.78
2019-02-24T05:40:53.430Z,99238.73
2019-02-24T05:43:28.206Z,99234.09
2019-02-24T05:46:05.464Z,99228.36
2019-02-24T05:48:40.376Z,99230.28
2019-02-24T05:51:14.698Z,99231.64
2019-02-24T05:53:50.832Z,99228.11
2019-02-24T05:56:29.204Z,99235.45
2019-02-24T05:59:05.883Z,99229.20
2019-02-24T06:01:40.484Z,99232.97
2019-02-24T06:04:14.896Z,99228.09
2019-02-24T06:06:51.729Z,99238.43
2019-02-24T06:09:26.800Z,99233.50
2019-02-24T06:12:05.758Z,99226.98
2019-02-24T06:14:42.046Z,99222.05
2019-02-24T06:17:21.687Z,99231.86
2019-02-24T06:19:58.477Z,99228.38
2019-02-24T06:22:53.054Z,99225.66
2019-02-24T06:25:28.794Z,99228.37
2019-02-24T06:28:04.590Z,99227.53
2019-02-24T06:30:41.378Z,99231.83
2019-02-24T06:33:17.461Z,99231.35
2019-02-24T06:35:54.031Z,99232.71
2019-02-24T06:38:29.211Z,99228.88
2019-02-24T06:41:05.758Z,99232.11
2019-02-24T06:43:42.810Z,99232.92
2019-02-24T06:46:24.291Z,99232.37
2019-02-24T06:48:59.718Z,99223.69
2019-02-24T06:51:36.528Z,99228.31
2019-02-24T06:54:12.453Z,99224.50
2019-02-24T06:56:48.786Z,99228.33
2019-02-24T06:59:26.319Z,99236.45
2019-02-24T07:02:03.928Z,99246.77
2019-02-24T07:04:41.708Z,99235.02
2019-02-24T07:07:28.308Z,99252.14
2019-02-24T07:09:56.501Z,99248.92
2019-02-24T07:12:31.778Z,99245.63
2019-02-24T07:15:10.038Z,99248.08
2019-02-24T07:17:54.746Z,99248.90
2019-02-24T07:20:30.691Z,99252.70
2019-02-24T07:23:17.884Z,99249.39
2019-02-24T07:25:58.192Z,99244.29
2019-02-24T07:28:35.295Z,99248.13
2019-02-24T07:31:16.510Z,99253.56
2019-02-24T07:33:51.082Z,99246.92
2019-02-24T07:36:27.123Z,99258.91
2019-02-24T07:39:01.923Z,99249.41
2019-02-24T07:41:38.251Z,99261.73
2019-02-24T07:44:12.621Z,99253.61
2019-02-24T07:46:47.796Z,99264.89
2019-02-24T07:49:22.718Z,99259.34
2019-02-24T07:51:57.558Z,99256.60
2019-02-24T07:54:31.144Z,99256.64
2019-02-24T07:57:05.072Z,99256.30
2019-02-24T07:59:39.899Z,99265.52
2019-02-24T08:02:17.431Z,99258.50
2019-02-24T08:04:51.899Z,99270.47
2019-02-24T08:07:27.477Z,99261.44
2019-02-24T08:10:02.445Z,99257.81
2019-02-24T08:12:37.407Z,99251.50
2019-02-24T08:15:13.593Z,99260.20
2019-02-24T08:17:51.108Z,99260.74
2019-02-24T08:20:26.040Z,99246.31
2019-02-24T08:23:04.282Z,99246.31
2019-02-24T08:25:45.441Z,99256.21
2019-02-24T08:28:23.200Z,99256.79
2019-02-24T08:31:00.102Z,99265.64
2019-02-24T08:33:35.254Z,99256.72
2019-02-24T08:36:09.895Z,99260.96
2019-02-24T08:38:44.460Z,99266.47
2019-02-24T08:41:18.852Z,99260.88
2019-02-24T08:43:52.901Z,99266.76
2019-02-24T08:46:27.249Z,99261.24
2019-02-24T08:49:01.620Z,99266.88
2019-02-24T08:51:37.835Z,99267.31
2019-02-24T08:54:12.627Z,99269.16
2019-02-24T08:56:47.441Z,99271.91
2019-02-24T08:59:21.979Z,99267.42
2019-02-24T09:01:56.909Z,99270.09
2019-02-24T09:04:32.767Z,99271.52
2019-02-24T09:07:12.236Z,99277.81
2019-02-24T09:09:46.832Z,99273.42
2019-02-24T09:12:23.403Z,99277.84
2019-02-24T09:15:00.927Z,99280.80
2019-02-24T09:17:35.810Z,99279.52
2019-02-24T09:20:12.762Z,99291.17
2019-02-24T09:22:47.909Z,99282.27
2019-02-24T09:25:23.438Z,99279.67
2019-02-24T09:27:57.775Z,99285.44
2019-02-24T09:30:34.450Z,99288.25
2019-02-24T09:33:09.272Z,99291.77
2019-02-24T09:35:45.600Z,99290.90
2019-02-24T09:38:20.815Z,99291.48
2019-02-24T09:40:56.912Z,99287.77
2019-02-24T09:43:31.751Z,99289.41
2019-02-24T09:46:09.931Z,99286.66
2019-02-24T09:48:50.004Z,99288.52
2019-02-24T09:51:24.587Z,99285.52
2019-02-24T09:54:00.375Z,99284.03
2019-02-24T09:56:40.035Z,99293.85
2019-02-24T09:59:14.220Z,99286.82
2019-02-24T10:01:49.928Z,99287.19
2019-02-24T10:04:24.753Z,99292.86
2019-02-24T10:06:59.798Z,99296.80
2019-02-24T10:09:35.100Z,99302.45
2019-02-24T10:12:10.599Z,99304.91
2019-02-24T10:14:51.400Z,99303.94
2019-02-24T10:17:35.861Z,99308.37
2019-02-24T10:20:13.160Z,99310.58
2019-02-24T10:22:50.541Z,99320.45
2019-02-24T10:25:26.072Z,99318.36
2019-02-24T10:28:14.235Z,99321.06
2019-02-24T10:30:52.188Z,99328.97
2019-02-24T10:33:29.873Z,99321.82
2019-02-24T10:36:06.840Z,99321.20
2019-02-24T10:38:47.359Z,99324.86
2019-02-24T10:41:24.531Z,99325.00
2019-02-24T10:44:00.032Z,99331.06
2019-02-24T10:46:35.529Z,99334.31
2019-02-24T10:49:11.017Z,99336.91
2019-02-24T10:51:47.426Z,99343.80
2019-02-24T10:54:22.697Z,99345.66
2019-02-24T10:56:58.243Z,99345.20
2019-02-24T10:59:33.616Z,99345.80
2019-02-24T11:02:09.135Z,99347.41
2019-02-24T11:04:44.549Z,99348.13
2019-02-24T11:07:26.460Z,99350.77
2019-02-24T11:10:22.389Z,99350.99
2019-02-24T11:15:53.421Z,99360.52
2019-02-24T11:18:30.623Z,99360.33
2019-02-24T11:21:07.177Z,99360.33
2019-02-24T11:23:44.795Z,99361.56
2019-02-24T11:26:21.005Z,99364.91
2019-02-24T11:28:59.624Z,99360.66
2019-02-24T11:31:38.371Z,99362.95
2019-02-24T11:34:14.970Z,99361.37
2019-02-24T11:36:56.763Z,99361.89
2019-02-24T11:39:32.414Z,99367.59
2019-02-24T11:42:10.491Z,99365.72
2019-02-24T11:44:48.880Z,99369.95
2019-02-24T11:47:24.916Z,99367.59
2019-02-24T11:50:02.712Z,99367.41
2019-02-24T11:55:52.952Z,99371.42
2019-02-24T11:58:32.003Z,99381.73
2019-02-24T12:01:13.115Z,99375.62
2019-02-24T12:03:50.143Z,99381.09
2019-02-24T12:06:29.138Z,99380.51
2019-02-24T12:09:08.126Z,99381.78
2019-02-24T12:14:38.300Z,99390.61
2019-02-24T12:17:15.473Z,99387.92
2019-02-24T12:19:52.360Z,99392.45
2019-02-24T12:22:31.164Z,99393.44
2019-02-24T12:25:12.459Z,99393.80
2019-02-24T12:27:49.968Z,99395.22
2019-02-24T12:30:30.398Z,99394.88
2019-02-24T12:33:10.625Z,99404.05
2019-02-24T12:35:51.279Z,99406.75
2019-02-24T12:38:28.524Z,99408.70
2019-02-24T12:41:04.914Z,99408.01
2019-02-24T12:43:41.670Z,99411.99
2019-02-24T12:49:20.315Z,99416.41
2019-02-24T12:52:01.985Z,99414.24
2019-02-24T12:54:39.051Z,99413.95
2019-02-24T12:57:25.156Z,99417.09
2019-02-24T13:00:05.362Z,99416.44
2019-02-24T13:02:45.960Z,99415.20
2019-02-24T13:05:22.637Z,99423.39
2019-02-24T13:08:00.061Z,99421.14
2019-02-24T13:10:36.437Z,99424.55
2019-02-24T13:13:12.640Z,99423.27
2019-02-24T13:15:49.672Z,99429.39
2019-02-24T13:18:25.197Z,99432.26
2019-02-24T13:21:06.885Z,99433.30
2019-02-24T13:23:55.128Z,99438.53
2019-02-24T13:26:30.754Z,99436.53
2019-02-24T13:29:06.118Z,99442.50
2019-02-24T13:31:43.486Z,99436.08
2019-02-24T13:34:18.688Z,99436.23
2019-02-24T13:36:53.876Z,99434.36
2019-02-24T13:39:28.804Z,99430.02
2019-02-24T13:45:05.875Z,99441.01
2019-02-24T13:50:33.304Z,99446.15
2019-02-24T13:53:10.713Z,99449.88
2019-02-24T13:55:47.128Z,99442.63
2019-02-24T13:58:22.273Z,99444.28
2019-02-24T14:00:57.943Z,99443.36
2019-02-24T14:03:45.772Z,99443.73
2019-02-24T14:06:23.156Z,99445.54
2019-02-24T14:11:50.040Z,99446.48
2019-02-24T14:14:36.949Z,99441.47
2019-02-24T14:17:13.909Z,99446.02
2019-02-24T14:19:50.375Z,99441.52
2019-02-24T14:22:27.577Z,99441.31
2019-02-24T14:25:03.102Z,99443.95
2019-02-24T14:27:39.794Z,99440.50
2019-02-24T14:30:20.436Z,99451.09
2019-02-24T14:32:55.689Z,99452.13
2019-02-24T14:35:34.009Z,99452.44
2019-02-24T14:38:13.696Z,99448.03
2019-02-24T14:40:48.941Z,99453.67
2019-02-24T14:43:36.520Z,99449.73
2019-02-24T14:46:15.190Z,99446.00
2019-02-24T14:48:55.627Z,99450.63
2019-02-24T14:51:34.020Z,99442.14
2019-02-24T14:54:08.931Z,99446.94
2019-02-24T14:56:44.476Z,99443.56
2019-02-24T14:59:19.054Z,99447.55
2019-02-24T15:01:54.083Z,99448.84
2019-02-24T15:04:29.497Z,99446.91
2019-02-24T15:07:08.271Z,99446.25
2019-02-24T15:09:43.528Z,99443.78
2019-02-24T15:12:19.227Z,99441.78
2019-02-24T15:14:59.386Z,99439.06
2019-02-24T15:17:36.079Z,99440.48
2019-02-24T15:20:14.655Z,99441.38
2019-02-24T15:22:50.978Z,99439.10
2019-02-24T15:25:28.599Z,99436.10
2019-02-24T15:28:05.116Z,99437.80
2019-02-24T15:30:42.005Z,99442.34
2019-02-24T15:33:16.498Z,99440.59
2019-02-24T15:35:55.205Z,99440.97
2019-02-24T15:38:38.222Z,99441.96
2019-02-24T15:41:13.466Z,99447.09
2019-02-24T15:43:51.872Z,99439.20
2019-02-24T15:46:27.515Z,99450.23
2019-02-24T15:49:03.597Z,99441.96
2019-02-24T15:51:44.367Z,99444.47
2019-02-24T15:54:19.047Z,99446.38
2019-02-24T15:56:57.811Z,99445.25
2019-02-24T15:59:35.017Z,99442.45
2019-02-24T16:02:11.629Z,99447.11
2019-02-24T16:04:49.564Z,99448.32
2019-02-24T16:07:24.040Z,99448.86
2019-02-24T16:10:00.902Z,99448.24
2019-02-24T16:12:38.657Z,99454.89
2019-02-24T16:15:17.676Z,99452.23
2019-02-24T16:17:52.235Z,99460.91
2019-02-24T16:20:37.429Z,99463.16
2019-02-24T16:23:13.869Z,99465.22
2019-02-24T16:25:48.172Z,99470.86
2019-02-24T16:28:25.025Z,99465.38
2019-02-24T16:31:02.776Z,99469.09
2019-02-24T16:33:37.947Z,99471.40
2019-02-24T16:36:11.496Z,99482.73
2019-02-24T16:38:47.279Z,99476.13
2019-02-24T16:41:22.118Z,99481.69
2019-02-24T16:43:57.055Z,99480.25
2019-02-24T16:46:33.690Z,99484.52
2019-02-24T16:49:09.343Z,99483.57
2019-02-24T16:51:47.974Z,99489.87
2019-02-24T16:54:23.164Z,99490.20
2019-02-24T16:57:04.792Z,99499.59
2019-02-24T16:59:35.804Z,99501.95
2019-02-24T17:02:22.598Z,99501.95
2019-02-24T17:04:54.242Z,99517.30
2019-02-24T17:07:29.132Z,99511.55
2019-02-24T17:10:03.136Z,99514.73
2019-02-24T17:12:39.663Z,99513.27
2019-02-24T17:15:15.284Z,99513.26
2019-02-24T17:17:49.550Z,99514.00
2019-02-24T17:20:25.317Z,99517.20
2019-02-24T17:23:00.049Z,99524.51
2019-02-24T17:25:35.188Z,99528.02
2019-02-24T17:28:11.566Z,99524.47
2019-02-24T17:30:47.782Z,99522.73
2019-02-24T17:33:29.684Z,99527.39
2019-02-24T17:36:00.154Z,99529.92
2019-02-24T17:38:35.165Z,99526.43
2019-02-24T17:41:12.407Z,99518.09
2019-02-24T17:43:50.553Z,99517.26
2019-02-24T17:46:24.700Z,99523.05
2019-02-24T17:48:59.309Z,99529.32
2019-02-24T17:51:34.451Z,99532.07
2019-02-24T17:54:10.514Z,99539.36
2019-02-24T17:56:48.063Z,99541.34
2019-02-24T17:59:23.006Z,99538.84
2019-02-24T18:01:58.476Z,99541.86
2019-02-24T18:04:33.505Z,99538.65
2019-02-24T18:07:11.886Z,99544.13
2019-02-24T18:09:49.029Z,99535.65
2019-02-24T18:12:39.774Z,99535.87
2019-02-24T18:15:16.875Z,99542.35
2019-02-24T18:17:51.459Z,99537.73
2019-02-24T18:20:26.846Z,99539.33
2019-02-24T18:23:02.038Z,99539.09
2019-02-24T18:25:36.669Z,99543.02
2019-02-24T18:28:13.476Z,99548.92
2019-02-24T18:30:50.007Z,99544.01
2019-02-24T18:33:27.289Z,99551.66
2019-02-24T18:36:02.282Z,99541.52
2019-02-24T18:38:38.504Z,99544.20
2019-02-24T18:41:13.374Z,99551.06
2019-02-24T18:43:48.030Z,99546.75
2019-02-24T18:46:22.891Z,99539.83
2019-02-24T18:48:57.393Z,99542.88
2019-02-24T18:51:33.379Z,99538.87
2019-02-24T18:54:08.096Z,99537.48
2019-02-24T18:56:42.722Z,99532.98
2019-02-24T18:59:17.658Z,99538.92
2019-02-24T19:01:52.207Z,99533.63
2019-02-24T19:04:28.426Z,99549.53
2019-02-24T19:07:05.427Z,99536.30
2019-02-24T19:09:40.161Z,99535.11
2019-02-24T19:12:14.788Z,99534.74
2019-02-24T19:14:50.693Z,99539.16
2019-02-24T19:17:24.004Z,99539.44
2019-02-24T19:19:58.439Z,99543.50
2019-02-24T19:22:32.815Z,99540.45
2019-02-24T19:25:08.002Z,99547.63
2019-02-24T19:27:41.919Z,99545.19
2019-02-24T19:30:23.980Z,99543.02
2019-02-24T19:33:00.312Z,99545.70
2019-02-24T19:35:34.635Z,99549.28
2019-02-24T19:38:12.195Z,99552.29
2019-02-24T19:40:48.318Z,99556.69
2019-02-24T19:43:21.920Z,99559.28
2019-02-24T19:45:55.670Z,99552.94
2019-02-24T19:48:30.058Z,99563.54
2019-02-24T19:51:04.061Z,99561.05
2019-02-24T19:53:42.775Z,99558.20
2019-02-24T19:56:16.070Z,99568.38
2019-02-24T19:58:50.371Z,99564.19
2019-02-24T20:01:24.332Z,99563.04
2019-02-24T20:03:58.798Z,99566.03
2019-02-24T20:06:32.799Z,99570.55
2019-02-24T20:09:07.938Z,99573.98
2019-02-24T20:11:41.858Z,99573.37
2019-02-24T20:14:16.428Z,99581.63
2019-02-24T20:16:51.016Z,99578.97
2019-02-24T20:19:25.374Z,99579.61
2019-02-24T20:21:59.358Z,99582.97
2019-02-24T20:24:33.309Z,99583.39
2019-02-24T20:27:07.430Z,99584.96
2019-02-24T20:29:41.347Z,99591.50
2019-02-24T20:32:15.533Z,99593.05
2019-02-24T20:34:49.351Z,99591.23
2019-02-24T20:37:23.307Z,99589.48
2019-02-24T20:39:58.088Z,99600.91
2019-02-24T20:42:33.354Z,99597.55
2019-02-24T20:45:08.500Z,99599.98
2019-02-24T20:47:42.453Z,99599.98
2019-02-24T20:50:18.487Z,99600.31
2019-02-24T20:52:52.388Z,99599.80
2019-02-24T20:55:26.791Z,99598.59
2019-02-24T20:58:02.812Z,99599.66
2019-02-24T21:00:44.756Z,99602.09
2019-02-24T21:03:18.655Z,99603.52
2019-02-24T21:08:35.458Z,99608.11
2019-02-24T21:11:10.951Z,99619.86
2019-02-24T21:13:44.822Z,99615.11
2019-02-24T21:16:18.675Z,99614.78
2019-02-24T21:18:52.287Z,99617.72
2019-02-24T21:21:25.743Z,99613.61
2019-02-24T21:24:00.014Z,99621.27
2019-02-24T21:26:33.762Z,99620.13
2019-02-24T21:29:10.994Z,99619.27
2019-02-24T21:31:44.786Z,99623.62
2019-02-24T21:34:18.884Z,99624.87
2019-02-24T21:36:52.596Z,99616.91
2019-02-24T21:39:26.851Z,99621.87
2019-02-24T21:42:00.388Z,99629.53
2019-02-24T21:44:33.979Z,99624.80
2019-02-24T21:47:07.687Z,99628.30
2019-02-24T21:49:42.641Z,99629.30
2019-02-24T21:52:16.406Z,99636.03
2019-02-24T21:54:50.470Z,99635.97
2019-02-24T21:57:24.129Z,99632.32
2019-02-24T21:59:57.840Z,99636.89
2019-02-24T22:02:31.890Z,99638.11
2019-02-24T22:05:06.714Z,99639.44
2019-02-24T22:07:41.310Z,99641.72
2019-02-24T22:10:16.797Z,99643.47
2019-02-24T22:12:52.426Z,99643.62
2019-02-24T22:15:27.259Z,99651.77
2019-02-24T22:18:01.101Z,99652.36
2019-02-24T22:20:35.892Z,99654.23
2019-02-24T22:23:09.727Z,99652.91
2019-02-24T22:25:43.120Z,99653.56
2019-02-24T22:28:19.684Z,99656.33
2019-02-24T22:30:55.943Z,99665.61
2019-02-24T22:33:31.958Z,99664.80
2019-02-24T22:36:07.713Z,99660.38
2019-02-24T22:38:43.213Z,99666.02
2019-02-24T22:41:16.838Z,99661.78
2019-02-24T22:43:50.795Z,99664.09
2019-02-24T22:46:24.730Z,99663.56
2019-02-24T22:48:58.399Z,99665.49
2019-02-24T22:51:32.547Z,99673.85
2019-02-24T22:54:06.384Z,99677.55
2019-02-24T22:56:40.112Z,99683.98
2019-02-24T22:59:13.975Z,99685.23
2019-02-24T23:01:49.519Z,99686.97
2019-02-24T23:04:23.632Z,99686.12
2019-02-24T23:06:57.480Z,99680.27
2019-02-24T23:09:31.785Z,99689.00
2019-02-24T23:12:06.814Z,99694.97
2019-02-24T23:14:40.751Z,99698.56
2019-02-24T23:17:14.779Z,99702.56
2019-02-24T23:19:49.240Z,99705.27
2019-02-24T23:22:23.241Z,99705.36
2019-02-24T23:25:00.543Z,99712.63
2019-02-24T23:30:17.844Z,99721.80
2019-02-24T23:32:52.165Z,99729.69
2019-02-24T23:35:25.598Z,99730.98
2019-02-24T23:38:00.322Z,99736.66
2019-02-24T23:40:33.571Z,99742.06
2019-02-24T23:45:47.314Z,99746.16
2019-02-24T23:48:23.212Z,99757.44
2019-02-24T23:51:00.811Z,99750.87
2019-02-24T23:53:32.795Z,99752.61
2019-02-24T23:56:06.886Z,99764.28
2019-02-24T23:58:40.767Z,99763.53
